sensor_id;sensor_type;location;lat;lon;timestamp;temperature;humidity
2873;DHT22;1444;49.166;7.312;2023-04-25T00:00:34;9.50;99.90
2873;DHT22;1444;49.166;7.312;2023-04-25T00:03:01;9.40;99.90
2873;DHT22;1444;49.166;7.312;2023-04-25T00:05:29;9.40;99.90
2873;DHT22;1444;49.166;7.312;2023-04-25T00:07:57;9.40;99.90
2873;DHT22;1444;49.166;7.312;2023-04-25T00:10:24;9.40;99.90
2873;DHT22;1444;49.166;7.312;2023-04-25T00:12:50;9.50;99.90
2873;DHT22;1444;49.166;7.312;2023-04-25T00:15:17;9.50;99.90
2873;DHT22;1444;49.166;7.312;2023-04-25T00:17:44;9.60;99.90
2873;DHT22;1444;49.166;7.312;2023-04-25T00:20:12;9.60;99.90
2873;DHT22;1444;49.166;7.312;2023-04-25T00:22:40;9.60;99.90
2873;DHT22;1444;49.166;7.312;2023-04-25T00:25:07;9.60;99.90
2873;DHT22;1444;49.166;7.312;2023-04-25T00:27:34;9.10;99.90
2873;DHT22;1444;49.166;7.312;2023-04-25T00:30:00;9.60;99.90
2873;DHT22;1444;49.166;7.312;2023-04-25T00:32:27;9.60;99.90
2873;DHT22;1444;49.166;7.312;2023-04-25T00:34:54;9.60;99.90
2873;DHT22;1444;49.166;7.312;2023-04-25T00:37:23;9.60;99.90
2873;DHT22;1444;49.166;7.312;2023-04-25T00:39:51;9.60;99.90
2873;DHT22;1444;49.166;7.312;2023-04-25T00:42:19;9.70;99.90
2873;DHT22;1444;49.166;7.312;2023-04-25T00:44:46;9.60;99.90
2873;DHT22;1444;49.166;7.312;2023-04-25T00:47:15;9.50;99.90
2873;DHT22;1444;49.166;7.312;2023-04-25T00:49:41;9.40;99.90
2873;DHT22;1444;49.166;7.312;2023-04-25T00:52:08;9.30;99.90
2873;DHT22;1444;49.166;7.312;2023-04-25T00:54:35;9.20;99.90
2873;DHT22;1444;49.166;7.312;2023-04-25T00:57:03;9.20;99.90
2873;DHT22;1444;49.166;7.312;2023-04-25T00:59:30;9.10;99.90
2873;DHT22;1444;49.166;7.312;2023-04-25T01:01:58;9.00;99.90
2873;DHT22;1444;49.166;7.312;2023-04-25T01:04:26;9.10;99.90
2873;DHT22;1444;49.166;7.312;2023-04-25T01:06:53;9.10;99.90
2873;DHT22;1444;49.166;7.312;2023-04-25T01:09:21;9.10;99.90
2873;DHT22;1444;49.166;7.312;2023-04-25T01:11:48;9.00;99.90
2873;DHT22;1444;49.166;7.312;2023-04-25T01:14:17;9.00;99.90
2873;DHT22;1444;49.166;7.312;2023-04-25T01:16:46;9.00;99.90
2873;DHT22;1444;49.166;7.312;2023-04-25T01:19:16;9.00;99.90
2873;DHT22;1444;49.166;7.312;2023-04-25T01:21:45;9.00;99.90
2873;DHT22;1444;49.166;7.312;2023-04-25T01:24:12;9.00;99.90
2873;DHT22;1444;49.166;7.312;2023-04-25T01:26:40;9.00;99.90
2873;DHT22;1444;49.166;7.312;2023-04-25T01:29:09;9.20;99.90
2873;DHT22;1444;49.166;7.312;2023-04-25T01:31:36;9.20;99.90
2873;DHT22;1444;49.166;7.312;2023-04-25T01:34:04;9.30;99.90
2873;DHT22;1444;49.166;7.312;2023-04-25T01:36:30;9.20;99.90
2873;DHT22;1444;49.166;7.312;2023-04-25T01:38:59;9.20;99.90
2873;DHT22;1444;49.166;7.312;2023-04-25T01:41:26;9.10;99.90
2873;DHT22;1444;49.166;7.312;2023-04-25T01:43:53;9.10;99.90
2873;DHT22;1444;49.166;7.312;2023-04-25T01:46:20;9.10;99.90
2873;DHT22;1444;49.166;7.312;2023-04-25T01:48:47;9.10;99.90
2873;DHT22;1444;49.166;7.312;2023-04-25T01:51:14;9.00;99.90
2873;DHT22;1444;49.166;7.312;2023-04-25T01:53:42;9.00;99.90
2873;DHT22;1444;49.166;7.312;2023-04-25T01:56:10;9.10;99.90
2873;DHT22;1444;49.166;7.312;2023-04-25T01:58:37;9.00;99.90
2873;DHT22;1444;49.166;7.312;2023-04-25T02:01:04;8.90;99.90
2873;DHT22;1444;49.166;7.312;2023-04-25T02:03:31;6.80;99.90
2873;DHT22;1444;49.166;7.312;2023-04-25T02:05:58;8.90;99.90
2873;DHT22;1444;49.166;7.312;2023-04-25T02:08:25;9.00;99.90
2873;DHT22;1444;49.166;7.312;2023-04-25T02:10:52;8.90;99.90
2873;DHT22;1444;49.166;7.312;2023-04-25T02:13:20;6.70;99.90
2873;DHT22;1444;49.166;7.312;2023-04-25T02:15:47;8.70;99.90
2873;DHT22;1444;49.166;7.312;2023-04-25T02:18:14;8.70;99.90
2873;DHT22;1444;49.166;7.312;2023-04-25T02:20:42;8.70;99.90
2873;DHT22;1444;49.166;7.312;2023-04-25T02:23:08;8.60;99.90
2873;DHT22;1444;49.166;7.312;2023-04-25T02:25:35;8.60;99.90
2873;DHT22;1444;49.166;7.312;2023-04-25T02:28:02;8.60;99.90
2873;DHT22;1444;49.166;7.312;2023-04-25T02:30:30;8.40;99.90
2873;DHT22;1444;49.166;7.312;2023-04-25T02:32:57;8.40;99.90
2873;DHT22;1444;49.166;7.312;2023-04-25T02:35:23;8.40;99.90
2873;DHT22;1444;49.166;7.312;2023-04-25T02:37:50;8.30;99.90
2873;DHT22;1444;49.166;7.312;2023-04-25T02:40:17;8.30;99.90
2873;DHT22;1444;49.166;7.312;2023-04-25T02:42:43;8.30;99.90
2873;DHT22;1444;49.166;7.312;2023-04-25T02:45:11;8.30;99.90
2873;DHT22;1444;49.166;7.312;2023-04-25T02:47:39;8.20;99.90
2873;DHT22;1444;49.166;7.312;2023-04-25T02:50:07;8.20;99.90
2873;DHT22;1444;49.166;7.312;2023-04-25T02:52:33;8.20;99.90
2873;DHT22;1444;49.166;7.312;2023-04-25T02:55:00;8.30;99.90
2873;DHT22;1444;49.166;7.312;2023-04-25T02:59:54;8.40;99.90
2873;DHT22;1444;49.166;7.312;2023-04-25T03:02:21;8.40;99.90
2873;DHT22;1444;49.166;7.312;2023-04-25T03:04:49;7.90;99.90
2873;DHT22;1444;49.166;7.312;2023-04-25T03:07:15;8.70;99.90
2873;DHT22;1444;49.166;7.312;2023-04-25T03:09:42;8.70;99.90
2873;DHT22;1444;49.166;7.312;2023-04-25T03:12:09;8.80;99.90
2873;DHT22;1444;49.166;7.312;2023-04-25T03:14:35;8.80;99.90
2873;DHT22;1444;49.166;7.312;2023-04-25T03:17:02;8.80;99.90
2873;DHT22;1444;49.166;7.312;2023-04-25T03:19:29;8.80;99.90
2873;DHT22;1444;49.166;7.312;2023-04-25T03:21:57;8.80;99.90
2873;DHT22;1444;49.166;7.312;2023-04-25T03:24:23;8.80;99.90
2873;DHT22;1444;49.166;7.312;2023-04-25T03:26:51;8.80;99.90
2873;DHT22;1444;49.166;7.312;2023-04-25T03:29:18;8.90;99.90
2873;DHT22;1444;49.166;7.312;2023-04-25T03:31:45;8.90;99.90
2873;DHT22;1444;49.166;7.312;2023-04-25T03:34:11;9.00;99.90
2873;DHT22;1444;49.166;7.312;2023-04-25T03:36:40;9.00;99.90
2873;DHT22;1444;49.166;7.312;2023-04-25T03:39:08;9.10;99.90
2873;DHT22;1444;49.166;7.312;2023-04-25T03:41:34;9.00;99.90
2873;DHT22;1444;49.166;7.312;2023-04-25T03:44:01;8.90;99.90
2873;DHT22;1444;49.166;7.312;2023-04-25T03:46:27;8.80;99.90
2873;DHT22;1444;49.166;7.312;2023-04-25T03:48:54;8.60;99.90
2873;DHT22;1444;49.166;7.312;2023-04-25T03:51:21;8.60;99.90
2873;DHT22;1444;49.166;7.312;2023-04-25T03:53:48;8.60;99.90
2873;DHT22;1444;49.166;7.312;2023-04-25T03:56:16;8.60;99.90
2873;DHT22;1444;49.166;7.312;2023-04-25T03:58:42;8.50;99.90
2873;DHT22;1444;49.166;7.312;2023-04-25T04:01:09;8.50;99.90
2873;DHT22;1444;49.166;7.312;2023-04-25T04:03:36;8.50;99.90
2873;DHT22;1444;49.166;7.312;2023-04-25T04:06:04;8.40;99.90
2873;DHT22;1444;49.166;7.312;2023-04-25T04:08:32;8.40;99.90
2873;DHT22;1444;49.166;7.312;2023-04-25T04:10:59;8.60;99.90
2873;DHT22;1444;49.166;7.312;2023-04-25T04:13:27;8.70;99.90
2873;DHT22;1444;49.166;7.312;2023-04-25T04:15:55;8.80;99.90
2873;DHT22;1444;49.166;7.312;2023-04-25T04:18:22;8.80;99.90
2873;DHT22;1444;49.166;7.312;2023-04-25T04:20:49;8.60;99.90
2873;DHT22;1444;49.166;7.312;2023-04-25T04:23:16;8.70;99.90
2873;DHT22;1444;49.166;7.312;2023-04-25T04:25:42;8.70;99.90
2873;DHT22;1444;49.166;7.312;2023-04-25T04:28:09;8.80;99.90
2873;DHT22;1444;49.166;7.312;2023-04-25T04:30:37;8.90;99.90
2873;DHT22;1444;49.166;7.312;2023-04-25T04:33:04;9.00;99.90
2873;DHT22;1444;49.166;7.312;2023-04-25T04:35:31;9.20;99.90
2873;DHT22;1444;49.166;7.312;2023-04-25T04:37:57;9.20;99.90
2873;DHT22;1444;49.166;7.312;2023-04-25T04:40:24;9.30;99.90
2873;DHT22;1444;49.166;7.312;2023-04-25T04:42:51;9.20;99.90
2873;DHT22;1444;49.166;7.312;2023-04-25T04:45:21;9.20;99.90
2873;DHT22;1444;49.166;7.312;2023-04-25T04:47:50;9.30;99.90
2873;DHT22;1444;49.166;7.312;2023-04-25T04:50:17;9.40;99.90
2873;DHT22;1444;49.166;7.312;2023-04-25T04:52:44;9.40;99.90
2873;DHT22;1444;49.166;7.312;2023-04-25T04:55:11;9.40;99.90
2873;DHT22;1444;49.166;7.312;2023-04-25T04:57:37;9.20;99.90
2873;DHT22;1444;49.166;7.312;2023-04-25T05:00:05;9.10;99.90
2873;DHT22;1444;49.166;7.312;2023-04-25T05:02:37;9.00;99.90
2873;DHT22;1444;49.166;7.312;2023-04-25T05:05:05;8.90;99.90
2873;DHT22;1444;49.166;7.312;2023-04-25T05:07:32;8.80;99.90
2873;DHT22;1444;49.166;7.312;2023-04-25T05:09:58;8.90;99.90
2873;DHT22;1444;49.166;7.312;2023-04-25T05:12:25;8.80;99.90
2873;DHT22;1444;49.166;7.312;2023-04-25T05:14:52;8.80;99.90
2873;DHT22;1444;49.166;7.312;2023-04-25T05:17:18;8.70;99.90
2873;DHT22;1444;49.166;7.312;2023-04-25T05:19:45;8.70;99.90
2873;DHT22;1444;49.166;7.312;2023-04-25T05:22:13;8.80;99.90
2873;DHT22;1444;49.166;7.312;2023-04-25T05:24:41;8.90;99.90
2873;DHT22;1444;49.166;7.312;2023-04-25T05:27:07;9.00;99.90
2873;DHT22;1444;49.166;7.312;2023-04-25T05:29:34;9.20;99.90
2873;DHT22;1444;49.166;7.312;2023-04-25T05:32:02;9.20;99.90
2873;DHT22;1444;49.166;7.312;2023-04-25T05:34:28;9.20;99.90
2873;DHT22;1444;49.166;7.312;2023-04-25T05:36:55;9.10;99.90
2873;DHT22;1444;49.166;7.312;2023-04-25T05:39:23;9.20;99.90
2873;DHT22;1444;49.166;7.312;2023-04-25T05:41:50;9.20;99.90
2873;DHT22;1444;49.166;7.312;2023-04-25T05:44:16;9.20;99.90
2873;DHT22;1444;49.166;7.312;2023-04-25T05:46:43;9.20;99.90
2873;DHT22;1444;49.166;7.312;2023-04-25T05:49:10;9.20;99.90
2873;DHT22;1444;49.166;7.312;2023-04-25T05:51:36;9.20;99.90
2873;DHT22;1444;49.166;7.312;2023-04-25T05:54:03;9.20;99.90
2873;DHT22;1444;49.166;7.312;2023-04-25T05:56:31;9.20;99.90
2873;DHT22;1444;49.166;7.312;2023-04-25T05:58:58;9.20;99.90
2873;DHT22;1444;49.166;7.312;2023-04-25T06:01:25;9.20;99.90
2873;DHT22;1444;49.166;7.312;2023-04-25T06:03:51;9.10;99.90
2873;DHT22;1444;49.166;7.312;2023-04-25T06:06:18;9.20;99.90
2873;DHT22;1444;49.166;7.312;2023-04-25T06:08:45;9.20;99.90
2873;DHT22;1444;49.166;7.312;2023-04-25T06:11:12;9.20;99.90
2873;DHT22;1444;49.166;7.312;2023-04-25T06:13:40;9.20;99.90
2873;DHT22;1444;49.166;7.312;2023-04-25T06:16:07;9.30;99.90
2873;DHT22;1444;49.166;7.312;2023-04-25T06:18:33;9.40;99.90
2873;DHT22;1444;49.166;7.312;2023-04-25T06:21:00;9.40;99.90
2873;DHT22;1444;49.166;7.312;2023-04-25T06:23:27;9.50;99.90
2873;DHT22;1444;49.166;7.312;2023-04-25T06:25:55;9.50;99.90
2873;DHT22;1444;49.166;7.312;2023-04-25T06:28:21;9.50;99.90
2873;DHT22;1444;49.166;7.312;2023-04-25T06:30:51;9.60;99.90
2873;DHT22;1444;49.166;7.312;2023-04-25T06:33:17;9.60;99.90
2873;DHT22;1444;49.166;7.312;2023-04-25T06:35:44;9.70;99.90
2873;DHT22;1444;49.166;7.312;2023-04-25T06:38:11;9.70;99.90
2873;DHT22;1444;49.166;7.312;2023-04-25T06:40:37;9.80;99.90
2873;DHT22;1444;49.166;7.312;2023-04-25T06:43:04;9.90;99.90
2873;DHT22;1444;49.166;7.312;2023-04-25T06:45:31;9.90;99.90
2873;DHT22;1444;49.166;7.312;2023-04-25T06:47:59;9.90;99.90
2873;DHT22;1444;49.166;7.312;2023-04-25T06:50:26;9.90;99.90
2873;DHT22;1444;49.166;7.312;2023-04-25T06:52:52;9.90;99.90
2873;DHT22;1444;49.166;7.312;2023-04-25T06:55:19;9.90;99.90
2873;DHT22;1444;49.166;7.312;2023-04-25T06:57:46;9.90;99.90
2873;DHT22;1444;49.166;7.312;2023-04-25T07:00:13;11.40;99.90
2873;DHT22;1444;49.166;7.312;2023-04-25T07:02:40;9.90;99.90
2873;DHT22;1444;49.166;7.312;2023-04-25T07:05:10;9.90;99.90
2873;DHT22;1444;49.166;7.312;2023-04-25T07:07:37;10.00;99.90
2873;DHT22;1444;49.166;7.312;2023-04-25T07:10:04;10.00;99.90
2873;DHT22;1444;49.166;7.312;2023-04-25T07:12:31;10.00;99.90
2873;DHT22;1444;49.166;7.312;2023-04-25T07:14:58;10.10;99.90
2873;DHT22;1444;49.166;7.312;2023-04-25T07:17:24;10.30;99.90
2873;DHT22;1444;49.166;7.312;2023-04-25T07:19:51;10.20;99.90
2873;DHT22;1444;49.166;7.312;2023-04-25T07:22:19;10.10;99.90
2873;DHT22;1444;49.166;7.312;2023-04-25T07:24:45;10.10;99.90
2873;DHT22;1444;49.166;7.312;2023-04-25T07:27:14;10.10;99.90
2873;DHT22;1444;49.166;7.312;2023-04-25T07:29:41;10.10;99.90
2873;DHT22;1444;49.166;7.312;2023-04-25T07:32:07;10.00;99.90
2873;DHT22;1444;49.166;7.312;2023-04-25T07:34:35;10.10;99.90
2873;DHT22;1444;49.166;7.312;2023-04-25T07:37:04;10.00;99.90
2873;DHT22;1444;49.166;7.312;2023-04-25T07:39:32;10.00;99.90
2873;DHT22;1444;49.166;7.312;2023-04-25T07:41:59;10.00;99.90
2873;DHT22;1444;49.166;7.312;2023-04-25T07:44:26;10.00;99.90
2873;DHT22;1444;49.166;7.312;2023-04-25T07:46:52;10.00;99.90
2873;DHT22;1444;49.166;7.312;2023-04-25T07:49:19;10.00;99.90
2873;DHT22;1444;49.166;7.312;2023-04-25T07:51:46;9.90;99.90
2873;DHT22;1444;49.166;7.312;2023-04-25T07:54:14;9.90;99.90
2873;DHT22;1444;49.166;7.312;2023-04-25T07:56:43;9.90;99.90
2873;DHT22;1444;49.166;7.312;2023-04-25T07:59:09;10.00;99.90
2873;DHT22;1444;49.166;7.312;2023-04-25T08:01:36;10.00;99.90
2873;DHT22;1444;49.166;7.312;2023-04-25T08:04:03;10.10;99.90
2873;DHT22;1444;49.166;7.312;2023-04-25T08:06:29;10.20;99.90
2873;DHT22;1444;49.166;7.312;2023-04-25T08:09:05;10.30;99.90
2873;DHT22;1444;49.166;7.312;2023-04-25T08:11:33;10.30;99.90
2873;DHT22;1444;49.166;7.312;2023-04-25T08:14:01;10.40;99.90
2873;DHT22;1444;49.166;7.312;2023-04-25T08:16:28;10.40;99.90
2873;DHT22;1444;49.166;7.312;2023-04-25T08:18:55;10.40;99.90
2873;DHT22;1444;49.166;7.312;2023-04-25T08:21:21;10.50;99.90
2873;DHT22;1444;49.166;7.312;2023-04-25T08:23:48;10.50;99.90
2873;DHT22;1444;49.166;7.312;2023-04-25T08:26:15;10.70;99.90
2873;DHT22;1444;49.166;7.312;2023-04-25T08:28:42;10.70;99.90
2873;DHT22;1444;49.166;7.312;2023-04-25T08:31:09;10.90;99.90
2873;DHT22;1444;49.166;7.312;2023-04-25T08:33:36;10.90;99.90
2873;DHT22;1444;49.166;7.312;2023-04-25T08:36:03;10.90;99.90
2873;DHT22;1444;49.166;7.312;2023-04-25T08:38:31;11.00;99.90
2873;DHT22;1444;49.166;7.312;2023-04-25T08:40:59;11.20;99.90
2873;DHT22;1444;49.166;7.312;2023-04-25T08:47:02;11.30;99.90
2873;DHT22;1444;49.166;7.312;2023-04-25T08:49:29;11.40;99.90
2873;DHT22;1444;49.166;7.312;2023-04-25T08:51:59;11.40;99.90
2873;DHT22;1444;49.166;7.312;2023-04-25T08:54:27;11.50;99.90
2873;DHT22;1444;49.166;7.312;2023-04-25T08:56:56;11.60;99.90
2873;DHT22;1444;49.166;7.312;2023-04-25T08:59:23;11.70;99.90
2873;DHT22;1444;49.166;7.312;2023-04-25T09:01:50;11.70;99.90
2873;DHT22;1444;49.166;7.312;2023-04-25T09:04:19;11.80;99.90
2873;DHT22;1444;49.166;7.312;2023-04-25T09:06:46;11.80;99.90
2873;DHT22;1444;49.166;7.312;2023-04-25T09:09:12;11.70;99.90
2873;DHT22;1444;49.166;7.312;2023-04-25T09:11:40;11.80;99.90
2873;DHT22;1444;49.166;7.312;2023-04-25T09:14:14;11.90;99.90
2873;DHT22;1444;49.166;7.312;2023-04-25T09:17:01;12.00;99.90
2873;DHT22;1444;49.166;7.312;2023-04-25T09:19:30;12.10;99.90
2873;DHT22;1444;49.166;7.312;2023-04-25T09:21:59;12.10;99.90
2873;DHT22;1444;49.166;7.312;2023-04-25T09:24:34;12.30;99.90
2873;DHT22;1444;49.166;7.312;2023-04-25T09:27:03;12.20;99.90
2873;DHT22;1444;49.166;7.312;2023-04-25T09:29:31;12.50;99.90
2873;DHT22;1444;49.166;7.312;2023-04-25T09:32:20;12.70;99.90
2873;DHT22;1444;49.166;7.312;2023-04-25T09:34:50;13.10;99.90
2873;DHT22;1444;49.166;7.312;2023-04-25T09:37:18;13.30;99.90
2873;DHT22;1444;49.166;7.312;2023-04-25T09:39:46;13.70;99.90
2873;DHT22;1444;49.166;7.312;2023-04-25T09:42:13;13.90;99.90
2873;DHT22;1444;49.166;7.312;2023-04-25T09:44:42;13.90;99.90
2873;DHT22;1444;49.166;7.312;2023-04-25T09:47:11;13.90;98.70
2873;DHT22;1444;49.166;7.312;2023-04-25T09:49:39;13.80;97.80
2873;DHT22;1444;49.166;7.312;2023-04-25T09:52:10;13.60;98.20
2873;DHT22;1444;49.166;7.312;2023-04-25T09:54:39;13.30;97.70
2873;DHT22;1444;49.166;7.312;2023-04-25T09:57:11;13.00;97.90
2873;DHT22;1444;49.166;7.312;2023-04-25T10:02:07;12.10;97.00
2873;DHT22;1444;49.166;7.312;2023-04-25T10:04:35;11.80;97.80
2873;DHT22;1444;49.166;7.312;2023-04-25T10:07:05;11.60;97.90
2873;DHT22;1444;49.166;7.312;2023-04-25T10:09:36;11.30;98.40
2873;DHT22;1444;49.166;7.312;2023-04-25T10:12:05;11.10;98.60
2873;DHT22;1444;49.166;7.312;2023-04-25T10:14:32;10.90;99.00
2873;DHT22;1444;49.166;7.312;2023-04-25T10:17:00;12.60;99.90
2873;DHT22;1444;49.166;7.312;2023-04-25T10:19:27;10.70;99.90
2873;DHT22;1444;49.166;7.312;2023-04-25T10:22:02;10.80;99.90
2873;DHT22;1444;49.166;7.312;2023-04-25T10:24:30;10.90;99.90
2873;DHT22;1444;49.166;7.312;2023-04-25T10:26:58;12.00;99.90
2873;DHT22;1444;49.166;7.312;2023-04-25T10:29:25;11.10;99.90
2873;DHT22;1444;49.166;7.312;2023-04-25T10:31:52;11.40;99.90
2873;DHT22;1444;49.166;7.312;2023-04-25T10:34:19;11.50;99.90
2873;DHT22;1444;49.166;7.312;2023-04-25T10:36:51;11.60;99.90
2873;DHT22;1444;49.166;7.312;2023-04-25T10:39:23;11.90;99.90
2873;DHT22;1444;49.166;7.312;2023-04-25T10:41:56;11.90;99.90
2873;DHT22;1444;49.166;7.312;2023-04-25T10:44:26;12.10;99.90
2873;DHT22;1444;49.166;7.312;2023-04-25T10:46:55;12.20;99.90
2873;DHT22;1444;49.166;7.312;2023-04-25T10:49:30;12.60;99.90
2873;DHT22;1444;49.166;7.312;2023-04-25T10:52:17;12.90;99.90
2873;DHT22;1444;49.166;7.312;2023-04-25T10:54:48;12.90;99.80
2873;DHT22;1444;49.166;7.312;2023-04-25T10:57:28;13.10;99.90
2873;DHT22;1444;49.166;7.312;2023-04-25T11:00:00;13.00;98.80
2873;DHT22;1444;49.166;7.312;2023-04-25T11:02:30;12.80;97.70
2873;DHT22;1444;49.166;7.312;2023-04-25T11:04:57;12.60;97.70
2873;DHT22;1444;49.166;7.312;2023-04-25T11:07:32;12.50;97.60
2873;DHT22;1444;49.166;7.312;2023-04-25T11:10:01;12.60;99.40
2873;DHT22;1444;49.166;7.312;2023-04-25T11:12:30;12.70;98.80
2873;DHT22;1444;49.166;7.312;2023-04-25T11:15:02;12.70;98.00
2873;DHT22;1444;49.166;7.312;2023-04-25T11:17:29;12.70;97.00
2873;DHT22;1444;49.166;7.312;2023-04-25T11:19:56;12.50;96.10
2873;DHT22;1444;49.166;7.312;2023-04-25T11:22:23;12.40;96.10
2873;DHT22;1444;49.166;7.312;2023-04-25T11:24:50;12.30;96.70
2873;DHT22;1444;49.166;7.312;2023-04-25T11:27:17;12.20;96.60
2873;DHT22;1444;49.166;7.312;2023-04-25T11:29:43;12.40;98.20
2873;DHT22;1444;49.166;7.312;2023-04-25T11:32:11;13.00;99.90
2873;DHT22;1444;49.166;7.312;2023-04-25T11:34:38;13.40;98.00
2873;DHT22;1444;49.166;7.312;2023-04-25T11:37:05;13.90;99.80
2873;DHT22;1444;49.166;7.312;2023-04-25T11:39:32;14.30;98.40
2873;DHT22;1444;49.166;7.312;2023-04-25T11:41:58;14.50;96.70
2873;DHT22;1444;49.166;7.312;2023-04-25T11:44:26;14.90;98.50
2873;DHT22;1444;49.166;7.312;2023-04-25T11:46:55;15.10;96.10
2873;DHT22;1444;49.166;7.312;2023-04-25T11:49:23;15.20;96.10
2873;DHT22;1444;49.166;7.312;2023-04-25T11:51:50;15.80;96.20
2873;DHT22;1444;49.166;7.312;2023-04-25T11:54:17;15.30;96.30
2873;DHT22;1444;49.166;7.312;2023-04-25T11:56:44;15.40;96.00
2873;DHT22;1444;49.166;7.312;2023-04-25T11:59:11;15.40;95.20
2873;DHT22;1444;49.166;7.312;2023-04-25T12:01:40;14.90;94.90
2873;DHT22;1444;49.166;7.312;2023-04-25T12:04:11;14.90;95.70
2873;DHT22;1444;49.166;7.312;2023-04-25T12:06:40;14.90;95.70
2873;DHT22;1444;49.166;7.312;2023-04-25T12:09:08;14.80;95.20
2873;DHT22;1444;49.166;7.312;2023-04-25T12:11:41;15.10;95.90
2873;DHT22;1444;49.166;7.312;2023-04-25T12:14:08;15.50;97.10
2873;DHT22;1444;49.166;7.312;2023-04-25T12:16:41;15.60;96.90
2873;DHT22;1444;49.166;7.312;2023-04-25T12:19:08;15.70;96.10
2873;DHT22;1444;49.166;7.312;2023-04-25T12:21:35;15.40;93.70
2873;DHT22;1444;49.166;7.312;2023-04-25T12:24:14;15.00;93.30
2873;DHT22;1444;49.166;7.312;2023-04-25T12:26:52;14.60;94.40
2873;DHT22;1444;49.166;7.312;2023-04-25T12:29:20;14.30;93.60
2873;DHT22;1444;49.166;7.312;2023-04-25T12:31:48;14.10;94.20
2873;DHT22;1444;49.166;7.312;2023-04-25T12:34:15;13.80;94.60
2873;DHT22;1444;49.166;7.312;2023-04-25T12:36:42;13.80;95.20
2873;DHT22;1444;49.166;7.312;2023-04-25T12:39:15;13.70;95.80
2873;DHT22;1444;49.166;7.312;2023-04-25T12:41:42;13.40;95.20
2873;DHT22;1444;49.166;7.312;2023-04-25T12:44:09;13.30;95.30
2873;DHT22;1444;49.166;7.312;2023-04-25T12:49:03;13.00;94.90
2873;DHT22;1444;49.166;7.312;2023-04-25T12:51:31;12.90;95.80
2873;DHT22;1444;49.166;7.312;2023-04-25T12:53:58;12.70;95.40
2873;DHT22;1444;49.166;7.312;2023-04-25T12:56:26;12.50;97.10
2873;DHT22;1444;49.166;7.312;2023-04-25T12:58:54;12.40;97.20
2873;DHT22;1444;49.166;7.312;2023-04-25T13:01:20;12.10;96.50
2873;DHT22;1444;49.166;7.312;2023-04-25T13:03:47;12.00;96.50
2873;DHT22;1444;49.166;7.312;2023-04-25T13:06:14;11.90;97.70
2873;DHT22;1444;49.166;7.312;2023-04-25T13:08:41;11.80;97.00
2873;DHT22;1444;49.166;7.312;2023-04-25T13:11:08;11.70;97.10
2873;DHT22;1444;49.166;7.312;2023-04-25T13:13:37;11.60;97.90
2873;DHT22;1444;49.166;7.312;2023-04-25T13:16:05;11.40;97.90
2873;DHT22;1444;49.166;7.312;2023-04-25T13:18:32;11.20;98.30
2873;DHT22;1444;49.166;7.312;2023-04-25T13:21:00;11.00;99.50
2873;DHT22;1444;49.166;7.312;2023-04-25T13:23:28;10.80;99.90
2873;DHT22;1444;49.166;7.312;2023-04-25T13:25:55;10.60;99.30
2873;DHT22;1444;49.166;7.312;2023-04-25T13:28:23;10.50;99.90
2873;DHT22;1444;49.166;7.312;2023-04-25T13:30:51;10.60;99.90
2873;DHT22;1444;49.166;7.312;2023-04-25T13:33:18;10.50;99.60
2873;DHT22;1444;49.166;7.312;2023-04-25T13:35:46;10.60;99.90
2873;DHT22;1444;49.166;7.312;2023-04-25T13:38:19;10.70;99.90
2873;DHT22;1444;49.166;7.312;2023-04-25T13:40:46;10.80;99.90
2873;DHT22;1444;49.166;7.312;2023-04-25T13:43:13;10.80;99.90
2873;DHT22;1444;49.166;7.312;2023-04-25T13:45:40;10.80;99.90
2873;DHT22;1444;49.166;7.312;2023-04-25T13:48:09;10.90;99.90
2873;DHT22;1444;49.166;7.312;2023-04-25T13:50:36;11.00;99.90
2873;DHT22;1444;49.166;7.312;2023-04-25T13:53:03;12.60;99.90
2873;DHT22;1444;49.166;7.312;2023-04-25T13:55:31;11.30;99.90
2873;DHT22;1444;49.166;7.312;2023-04-25T13:57:58;11.40;99.90
2873;DHT22;1444;49.166;7.312;2023-04-25T14:00:25;11.70;99.90
2873;DHT22;1444;49.166;7.312;2023-04-25T14:02:51;11.70;99.90
2873;DHT22;1444;49.166;7.312;2023-04-25T14:07:47;11.90;99.30
2873;DHT22;1444;49.166;7.312;2023-04-25T14:10:14;11.80;99.20
2873;DHT22;1444;49.166;7.312;2023-04-25T14:12:41;11.80;99.40
2873;DHT22;1444;49.166;7.312;2023-04-25T14:15:08;11.50;99.80
2873;DHT22;1444;49.166;7.312;2023-04-25T14:17:34;11.30;99.90
2873;DHT22;1444;49.166;7.312;2023-04-25T14:20:01;11.30;99.90
2873;DHT22;1444;49.166;7.312;2023-04-25T14:22:32;11.20;99.90
2873;DHT22;1444;49.166;7.312;2023-04-25T14:24:59;11.30;99.90
2873;DHT22;1444;49.166;7.312;2023-04-25T14:27:26;11.20;99.90
2873;DHT22;1444;49.166;7.312;2023-04-25T14:29:53;11.20;99.90
2873;DHT22;1444;49.166;7.312;2023-04-25T14:32:20;11.30;99.90
2873;DHT22;1444;49.166;7.312;2023-04-25T14:34:46;11.30;99.90
2873;DHT22;1444;49.166;7.312;2023-04-25T14:37:13;11.40;99.90
2873;DHT22;1444;49.166;7.312;2023-04-25T14:39:41;11.40;99.80
2873;DHT22;1444;49.166;7.312;2023-04-25T14:42:08;11.60;99.90
2873;DHT22;1444;49.166;7.312;2023-04-25T14:44:36;11.80;99.90
2873;DHT22;1444;49.166;7.312;2023-04-25T14:47:03;11.70;99.90
2873;DHT22;1444;49.166;7.312;2023-04-25T14:49:32;11.60;99.90
2873;DHT22;1444;49.166;7.312;2023-04-25T14:51:59;11.60;99.90
2873;DHT22;1444;49.166;7.312;2023-04-25T14:54:26;11.70;99.90
2873;DHT22;1444;49.166;7.312;2023-04-25T14:56:54;11.70;99.90
2873;DHT22;1444;49.166;7.312;2023-04-25T14:59:21;11.70;99.90
2873;DHT22;1444;49.166;7.312;2023-04-25T15:01:49;11.80;99.90
2873;DHT22;1444;49.166;7.312;2023-04-25T15:04:16;12.10;99.90
2873;DHT22;1444;49.166;7.312;2023-04-25T15:06:42;12.30;99.90
2873;DHT22;1444;49.166;7.312;2023-04-25T15:09:09;12.50;99.90
2873;DHT22;1444;49.166;7.312;2023-04-25T15:11:37;12.60;99.90
2873;DHT22;1444;49.166;7.312;2023-04-25T15:14:05;12.70;98.70
2873;DHT22;1444;49.166;7.312;2023-04-25T15:16:32;12.60;98.90
2873;DHT22;1444;49.166;7.312;2023-04-25T15:18:58;12.70;98.70
2873;DHT22;1444;49.166;7.312;2023-04-25T15:21:29;12.80;98.70
2873;DHT22;1444;49.166;7.312;2023-04-25T15:23:56;12.80;99.00
2873;DHT22;1444;49.166;7.312;2023-04-25T15:26:24;12.80;98.50
2873;DHT22;1444;49.166;7.312;2023-04-25T15:28:50;12.80;98.20
2873;DHT22;1444;49.166;7.312;2023-04-25T15:31:19;12.80;98.20
2873;DHT22;1444;49.166;7.312;2023-04-25T15:33:46;12.70;98.90
2873;DHT22;1444;49.166;7.312;2023-04-25T15:36:12;12.50;98.90
2873;DHT22;1444;49.166;7.312;2023-04-25T15:38:41;12.30;99.10
2873;DHT22;1444;49.166;7.312;2023-04-25T15:41:08;12.30;99.90
2873;DHT22;1444;49.166;7.312;2023-04-25T15:43:35;12.30;99.60
2873;DHT22;1444;49.166;7.312;2023-04-25T15:46:03;12.30;99.90
2873;DHT22;1444;49.166;7.312;2023-04-25T15:48:31;12.30;99.50
2873;DHT22;1444;49.166;7.312;2023-04-25T15:50:58;12.30;99.10
2873;DHT22;1444;49.166;7.312;2023-04-25T15:53:25;12.30;98.20
2873;DHT22;1444;49.166;7.312;2023-04-25T15:55:52;12.40;99.00
2873;DHT22;1444;49.166;7.312;2023-04-25T15:58:18;12.40;99.40
2873;DHT22;1444;49.166;7.312;2023-04-25T16:00:45;12.40;98.60
2873;DHT22;1444;49.166;7.312;2023-04-25T16:03:13;12.60;99.30
2873;DHT22;1444;49.166;7.312;2023-04-25T16:05:41;12.60;99.00
2873;DHT22;1444;49.166;7.312;2023-04-25T16:08:08;12.60;98.50
2873;DHT22;1444;49.166;7.312;2023-04-25T16:10:34;12.80;99.10
2873;DHT22;1444;49.166;7.312;2023-04-25T16:13:01;12.90;98.90
2873;DHT22;1444;49.166;7.312;2023-04-25T16:15:28;12.70;98.90
2873;DHT22;1444;49.166;7.312;2023-04-25T16:17:54;12.60;98.90
2873;DHT22;1444;49.166;7.312;2023-04-25T16:20:21;9.90;97.50
2873;DHT22;1444;49.166;7.312;2023-04-25T16:22:49;12.40;98.20
2873;DHT22;1444;49.166;7.312;2023-04-25T16:25:16;12.40;98.90